createdAt,value
2023-05-11T00:01:25.100Z,12.10
2023-05-11T00:03:52.370Z,12.20
2023-05-11T00:06:19.578Z,12.10
2023-05-11T00:08:46.828Z,12.10
2023-05-11T00:11:13.855Z,12.10
2023-05-11T00:13:41.144Z,12.10
2023-05-11T00:16:08.363Z,12.10
2023-05-11T00:18:35.763Z,12.10
2023-05-11T00:21:02.993Z,12.00
2023-05-11T00:23:30.201Z,12.10
2023-05-11T00:25:57.336Z,12.10
2023-05-11T00:28:24.530Z,12.10
2023-05-11T00:30:57.516Z,12.10
2023-05-11T00:33:25.012Z,12.00
2023-05-11T00:35:52.504Z,12.10
2023-05-11T00:38:19.983Z,12.00
2023-05-11T00:40:49.057Z,12.00
2023-05-11T00:43:16.319Z,12.00
2023-05-11T00:45:45.737Z,12.00
2023-05-11T00:48:13.103Z,12.00
2023-05-11T00:50:40.205Z,12.00
2023-05-11T00:53:07.402Z,12.00
2023-05-11T00:55:34.684Z,12.00
2023-05-11T00:58:05.531Z,12.00
2023-05-11T01:00:32.882Z,12.00
2023-05-11T01:03:01.752Z,12.00
2023-05-11T01:06:11.979Z,11.90
2023-05-11T01:08:57.391Z,12.00
2023-05-11T01:11:28.677Z,12.00
2023-05-11T01:14:25.685Z,12.00
2023-05-11T01:16:56.610Z,11.90
2023-05-11T01:19:35.755Z,11.90
2023-05-11T01:22:29.092Z,11.90
2023-05-11T01:25:22.369Z,11.90
2023-05-11T01:28:10.991Z,11.90
2023-05-11T01:30:55.331Z,11.90
2023-05-11T01:33:32.613Z,11.90
2023-05-11T01:36:12.816Z,11.90
2023-05-11T01:38:42.568Z,11.90
2023-05-11T01:41:17.954Z,11.90
2023-05-11T01:43:58.279Z,11.90
2023-05-11T01:46:32.861Z,11.80
2023-05-11T01:49:03.534Z,11.90
2023-05-11T01:51:38.843Z,11.80
2023-05-11T01:54:09.485Z,11.80
2023-05-11T01:56:38.705Z,11.80
2023-05-11T01:59:06.556Z,11.80
2023-05-11T02:01:36.621Z,11.80
2023-05-11T02:04:06.017Z,11.70
2023-05-11T02:06:35.822Z,11.70
2023-05-11T02:09:03.442Z,11.70
2023-05-11T02:11:34.360Z,11.80
2023-05-11T02:14:03.255Z,11.70
2023-05-11T02:16:32.615Z,11.80
2023-05-11T02:19:00.611Z,11.70
2023-05-11T02:21:29.737Z,11.70
2023-05-11T02:23:57.895Z,11.70
2023-05-11T02:26:25.665Z,11.70
2023-05-11T02:28:52.677Z,11.70
2023-05-11T02:31:26.047Z,11.70
2023-05-11T02:33:57.323Z,11.70
2023-05-11T02:36:28.787Z,11.70
2023-05-11T02:39:06.214Z,11.70
2023-05-11T02:41:43.589Z,11.70
2023-05-11T02:44:16.004Z,11.70
2023-05-11T02:46:47.694Z,11.80
2023-05-11T02:49:15.679Z,11.70
2023-05-11T02:51:45.281Z,11.70
2023-05-11T02:54:14.997Z,11.70
2023-05-11T02:56:47.599Z,11.70
2023-05-11T02:59:15.624Z,11.70
2023-05-11T03:01:43.745Z,11.70
2023-05-11T03:04:11.567Z,11.70
2023-05-11T03:06:38.874Z,11.70
2023-05-11T03:09:10.166Z,11.70
2023-05-11T03:11:43.350Z,11.60
2023-05-11T03:14:12.840Z,11.60
2023-05-11T03:16:42.077Z,11.60
2023-05-11T03:19:10.150Z,11.60
2023-05-11T03:21:38.900Z,11.60
2023-05-11T03:24:08.046Z,11.60
2023-05-11T03:26:36.390Z,11.50
2023-05-11T03:29:04.274Z,11.50
2023-05-11T03:31:31.555Z,11.50
2023-05-11T03:34:00.223Z,11.50
2023-05-11T03:36:29.740Z,11.50
2023-05-11T03:38:58.682Z,11.50
2023-05-11T03:41:33.894Z,11.50
2023-05-11T03:44:05.971Z,11.50
2023-05-11T03:46:38.114Z,11.50
2023-05-11T03:49:08.114Z,11.50
2023-05-11T03:51:36.395Z,11.50
2023-05-11T03:54:03.742Z,11.40
2023-05-11T03:56:30.952Z,11.40
2023-05-11T03:58:58.371Z,11.40
2023-05-11T04:01:26.490Z,11.40
2023-05-11T04:03:54.005Z,11.40
2023-05-11T04:06:23.123Z,11.40
2023-05-11T04:08:58.739Z,11.40
2023-05-11T04:11:27.648Z,11.40
2023-05-11T04:13:55.246Z,11.40
2023-05-11T04:16:22.450Z,11.40
2023-05-11T04:18:49.651Z,11.40
2023-05-11T04:21:16.747Z,11.40
2023-05-11T04:23:43.782Z,11.40
2023-05-11T04:26:10.903Z,11.40
2023-05-11T04:28:37.935Z,11.40
2023-05-11T04:31:04.988Z,11.40
2023-05-11T04:33:32.039Z,11.50
2023-05-11T04:35:59.348Z,11.50
2023-05-11T04:38:26.715Z,11.40
2023-05-11T04:40:54.200Z,11.50
2023-05-11T04:43:22.721Z,11.50
2023-05-11T04:45:52.965Z,11.50
2023-05-11T04:48:24.521Z,11.50
2023-05-11T04:50:54.744Z,11.60
2023-05-11T04:53:24.248Z,11.50
2023-05-11T04:55:51.827Z,11.60
2023-05-11T04:58:19.006Z,11.60
2023-05-11T05:00:46.023Z,11.60
2023-05-11T05:03:13.154Z,11.60
2023-05-11T05:05:40.218Z,11.60
2023-05-11T05:08:07.511Z,11.60
2023-05-11T05:10:34.857Z,11.60
2023-05-11T05:13:01.839Z,11.60
2023-05-11T05:15:30.396Z,11.60
2023-05-11T05:17:58.683Z,11.60
2023-05-11T05:20:26.173Z,11.60
2023-05-11T05:22:55.129Z,11.70
2023-05-11T05:25:22.303Z,11.70
2023-05-11T05:27:49.862Z,11.70
2023-05-11T05:30:19.842Z,11.70
2023-05-11T05:32:48.133Z,11.70
2023-05-11T05:35:15.654Z,11.80
2023-05-11T05:37:43.654Z,11.90
2023-05-11T05:40:11.415Z,12.00
2023-05-11T05:42:44.892Z,12.00
2023-05-11T05:45:15.833Z,12.10
2023-05-11T05:47:43.356Z,12.20
2023-05-11T05:50:11.757Z,12.20
2023-05-11T05:52:40.892Z,12.30
2023-05-11T05:55:08.793Z,12.20
2023-05-11T05:57:36.291Z,12.20
2023-05-11T06:00:05.281Z,12.30
2023-05-11T06:02:40.028Z,12.30
2023-05-11T06:05:09.704Z,12.30
2023-05-11T06:07:37.806Z,12.30
2023-05-11T06:10:06.494Z,12.30
2023-05-11T06:12:33.584Z,12.40
2023-05-11T06:15:01.531Z,12.40
2023-05-11T06:17:30.204Z,12.50
2023-05-11T06:19:57.370Z,12.60
2023-05-11T06:22:27.720Z,12.70
2023-05-11T06:24:54.814Z,12.70
2023-05-11T06:27:22.302Z,12.70
2023-05-11T06:29:52.239Z,12.80
2023-05-11T06:32:19.784Z,12.70
2023-05-11T06:34:46.962Z,12.80
2023-05-11T06:37:20.406Z,12.80
2023-05-11T06:39:49.921Z,12.80
2023-05-11T06:42:17.476Z,12.90
2023-05-11T06:44:44.519Z,12.90
2023-05-11T06:47:11.716Z,12.90
2023-05-11T06:49:39.347Z,12.90
2023-05-11T06:52:06.475Z,12.90
2023-05-11T06:54:34.061Z,12.90
2023-05-11T06:57:03.589Z,12.90
2023-05-11T06:59:30.949Z,12.90
2023-05-11T07:01:58.179Z,12.90
2023-05-11T07:04:25.414Z,13.00
2023-05-11T07:06:53.094Z,12.90
2023-05-11T07:09:20.475Z,12.80
2023-05-11T07:11:47.520Z,12.80
2023-05-11T07:14:14.641Z,12.80
2023-05-11T07:16:42.161Z,12.70
2023-05-11T07:19:09.928Z,12.70
2023-05-11T07:21:37.177Z,12.70
2023-05-11T07:24:04.616Z,12.70
2023-05-11T07:26:32.007Z,12.60
2023-05-11T07:28:59.086Z,12.60
2023-05-11T07:31:26.244Z,12.60
2023-05-11T07:33:53.439Z,12.60
2023-05-11T07:36:20.497Z,12.50
2023-05-11T07:38:47.548Z,12.50
2023-05-11T07:41:14.610Z,12.50
2023-05-11T07:43:41.866Z,12.50
2023-05-11T07:46:09.063Z,12.60
2023-05-11T07:48:36.644Z,12.60
2023-05-11T07:51:03.763Z,12.60
2023-05-11T07:53:31.419Z,12.60
2023-05-11T07:55:59.692Z,12.60
2023-05-11T07:58:26.906Z,12.50
2023-05-11T08:00:54.118Z,12.50
2023-05-11T08:03:21.484Z,12.50
2023-05-11T08:05:49.066Z,12.60
2023-05-11T08:08:16.426Z,12.70
2023-05-11T08:10:43.599Z,12.80
2023-05-11T08:13:11.010Z,12.80
2023-05-11T08:15:38.260Z,12.80
2023-05-11T08:18:06.308Z,12.90
2023-05-11T08:20:33.678Z,12.80
2023-05-11T08:23:00.742Z,12.90
2023-05-11T08:25:28.035Z,12.90
2023-05-11T08:27:55.294Z,13.00
2023-05-11T08:30:22.535Z,13.00
2023-05-11T08:32:57.654Z,13.00
2023-05-11T08:35:26.011Z,13.00
2023-05-11T08:37:53.105Z,13.00
2023-05-11T08:40:21.796Z,13.10
2023-05-11T08:42:53.190Z,13.10
2023-05-11T08:45:22.690Z,13.20
2023-05-11T08:47:50.088Z,13.20
2023-05-11T08:50:17.436Z,13.40
2023-05-11T08:52:44.992Z,13.60
2023-05-11T08:55:12.808Z,13.60
2023-05-11T08:57:41.344Z,13.60
2023-05-11T09:00:09.137Z,13.60
2023-05-11T09:02:36.719Z,13.70
2023-05-11T09:05:04.600Z,13.70
2023-05-11T09:07:35.239Z,13.60
2023-05-11T09:10:03.482Z,13.60
2023-05-11T09:12:31.098Z,13.60
2023-05-11T09:15:02.058Z,13.80
2023-05-11T09:17:29.566Z,13.70
2023-05-11T09:20:05.633Z,13.70
2023-05-11T09:22:36.412Z,13.70
2023-05-11T09:25:04.870Z,13.80
2023-05-11T09:27:32.415Z,13.80
2023-05-11T09:32:49.809Z,13.80
2023-05-11T09:35:34.486Z,13.90
2023-05-11T09:38:13.119Z,13.90
2023-05-11T09:40:53.185Z,14.00
2023-05-11T09:43:25.193Z,14.20
2023-05-11T09:45:58.724Z,14.40
2023-05-11T09:48:31.870Z,14.60
2023-05-11T09:51:03.724Z,14.80
2023-05-11T09:53:44.737Z,14.80
2023-05-11T09:56:15.886Z,14.90
2023-05-11T09:58:51.353Z,15.10
2023-05-11T10:01:29.613Z,15.20
2023-05-11T10:04:06.088Z,15.20
2023-05-11T10:06:55.318Z,15.30
2023-05-11T10:09:27.227Z,15.30
2023-05-11T10:11:55.550Z,15.40
2023-05-11T10:14:24.839Z,15.40
2023-05-11T10:16:53.896Z,15.50
2023-05-11T10:19:21.365Z,15.70
2023-05-11T10:21:48.664Z,15.80
2023-05-11T10:24:17.199Z,15.90
2023-05-11T10:26:46.063Z,16.00
2023-05-11T10:29:14.113Z,16.30
2023-05-11T10:31:41.984Z,16.60
2023-05-11T10:34:12.009Z,16.60
2023-05-11T10:36:39.479Z,16.70
2023-05-11T10:39:06.481Z,16.90
2023-05-11T10:41:48.908Z,16.80
2023-05-11T10:45:10.838Z,16.90
2023-05-11T10:48:34.264Z,16.90
2023-05-11T10:51:25.908Z,17.10
2023-05-11T10:54:20.740Z,17.30
2023-05-11T10:56:47.644Z,17.20
2023-05-11T11:00:10.760Z,17.00
2023-05-11T11:02:38.192Z,17.20
2023-05-11T11:05:09.470Z,17.60
2023-05-11T11:08:00.074Z,17.90
2023-05-11T11:10:33.613Z,17.90
2023-05-11T11:13:09.983Z,18.20
2023-05-11T11:15:58.992Z,18.00
2023-05-11T11:18:31.159Z,18.00
2023-05-11T11:21:01.085Z,18.10
2023-05-11T11:23:54.716Z,18.00
2023-05-11T11:26:49.294Z,17.70
2023-05-11T11:29:16.821Z,17.80
2023-05-11T11:31:44.035Z,17.70
2023-05-11T11:34:29.770Z,17.40
2023-05-11T11:37:00.972Z,17.50
2023-05-11T11:39:31.087Z,17.70
2023-05-11T11:42:16.061Z,17.70
2023-05-11T11:44:44.930Z,17.80
2023-05-11T11:47:16.369Z,18.10
2023-05-11T11:49:54.621Z,18.10
2023-05-11T11:52:31.230Z,18.00
2023-05-11T11:55:00.650Z,18.20
2023-05-11T11:57:33.749Z,18.10
2023-05-11T12:00:06.847Z,18.20
2023-05-11T12:02:45.646Z,18.10
2023-05-11T12:05:21.405Z,18.10
2023-05-11T12:07:52.114Z,18.00
2023-05-11T12:10:22.246Z,18.20
2023-05-11T12:12:55.016Z,18.20
2023-05-11T12:15:26.470Z,18.30
2023-05-11T12:17:54.060Z,18.50
2023-05-11T12:20:21.973Z,18.50
2023-05-11T12:22:49.649Z,18.60
2023-05-11T12:25:19.000Z,18.60
2023-05-11T12:28:03.073Z,18.40
2023-05-11T12:30:33.577Z,18.50
2023-05-11T12:33:04.372Z,18.70
2023-05-11T12:35:34.396Z,18.60
2023-05-11T12:38:05.057Z,18.50
2023-05-11T12:40:32.298Z,18.40
2023-05-11T12:43:01.049Z,18.30
2023-05-11T12:45:29.237Z,18.30
2023-05-11T12:47:58.299Z,18.50
2023-05-11T12:50:25.429Z,18.40
2023-05-11T12:52:52.885Z,18.60
2023-05-11T12:55:30.767Z,18.70
2023-05-11T12:58:15.903Z,18.90
2023-05-11T13:00:57.933Z,18.70
2023-05-11T13:03:28.032Z,18.90
2023-05-11T13:06:12.586Z,18.70
2023-05-11T13:08:44.638Z,18.50
2023-05-11T13:11:27.377Z,18.30
2023-05-11T13:13:57.055Z,18.50
2023-05-11T13:16:32.873Z,18.50
2023-05-11T13:19:07.971Z,18.30
2023-05-11T13:21:35.240Z,18.20
2023-05-11T13:24:03.981Z,18.30
2023-05-11T13:26:31.848Z,18.10
2023-05-11T13:29:10.284Z,18.00
2023-05-11T13:31:45.889Z,18.00
2023-05-11T13:34:13.218Z,18.10
2023-05-11T13:36:40.974Z,18.10
2023-05-11T13:39:08.364Z,18.20
2023-05-11T13:41:35.688Z,18.20
2023-05-11T13:44:03.393Z,18.20
2023-05-11T13:46:30.435Z,18.10
2023-05-11T13:48:59.643Z,18.00
2023-05-11T13:51:27.354Z,18.10
2023-05-11T13:53:54.614Z,18.10
2023-05-11T13:56:22.184Z,17.90
2023-05-11T13:58:49.390Z,18.00
2023-05-11T14:01:17.186Z,18.00
2023-05-11T14:03:44.375Z,17.90
2023-05-11T14:06:11.600Z,17.90
2023-05-11T14:08:39.030Z,17.80
2023-05-11T14:11:06.285Z,17.90
2023-05-11T14:13:33.521Z,17.80
2023-05-11T14:16:01.578Z,17.70
2023-05-11T14:18:29.092Z,17.70
2023-05-11T14:20:57.065Z,17.80
2023-05-11T14:23:24.280Z,17.80
2023-05-11T14:25:51.477Z,17.90
2023-05-11T14:28:18.601Z,18.00
2023-05-11T14:30:45.803Z,18.10
2023-05-11T14:33:13.009Z,18.20
2023-05-11T14:35:40.229Z,18.20
2023-05-11T14:38:07.408Z,18.20
2023-05-11T14:40:34.514Z,18.20
2023-05-11T14:43:01.746Z,18.10
2023-05-11T14:45:28.920Z,18.10
2023-05-11T14:47:56.329Z,17.90
2023-05-11T14:50:23.628Z,17.90
2023-05-11T14:52:50.848Z,17.80
2023-05-11T14:55:18.224Z,17.70
2023-05-11T14:57:45.637Z,17.70
2023-05-11T15:00:13.470Z,17.70
2023-05-11T15:02:41.116Z,17.60
2023-05-11T15:05:08.899Z,17.60
2023-05-11T15:07:36.822Z,17.70
2023-05-11T15:10:04.492Z,17.70
2023-05-11T15:12:31.728Z,17.80
2023-05-11T15:14:58.795Z,17.60
2023-05-11T15:17:26.908Z,17.60
2023-05-11T15:19:54.158Z,17.50
2023-05-11T15:22:22.543Z,17.30
2023-05-11T15:24:49.822Z,17.20
2023-05-11T15:27:16.891Z,17.10
2023-05-11T15:29:43.960Z,17.20
2023-05-11T15:32:15.268Z,17.20
2023-05-11T15:34:58.008Z,17.10
2023-05-11T15:37:27.004Z,17.10
2023-05-11T15:39:54.297Z,17.10
2023-05-11T15:42:21.598Z,17.00
2023-05-11T15:44:48.803Z,17.10
2023-05-11T15:47:16.308Z,17.10
2023-05-11T15:49:43.624Z,17.00
2023-05-11T15:52:10.784Z,16.90
2023-05-11T15:54:37.815Z,16.80
2023-05-11T15:57:05.428Z,16.80
2023-05-11T15:59:35.067Z,16.80
2023-05-11T16:02:02.393Z,16.80
2023-05-11T16:04:29.559Z,16.70
2023-05-11T16:06:58.741Z,16.80
2023-05-11T16:09:26.230Z,16.70
2023-05-11T16:11:53.405Z,16.70
2023-05-11T16:14:20.415Z,16.70
2023-05-11T16:16:47.600Z,16.60
2023-05-11T16:19:14.883Z,16.60
2023-05-11T16:21:43.705Z,16.40
2023-05-11T16:24:10.952Z,16.30
2023-05-11T16:26:38.098Z,16.40
2023-05-11T16:29:05.917Z,16.30
2023-05-11T16:31:32.961Z,16.30
2023-05-11T16:34:00.265Z,16.30
2023-05-11T16:36:29.185Z,16.20
2023-05-11T16:38:56.245Z,16.20
2023-05-11T16:41:25.261Z,16.20
2023-05-11T16:43:52.444Z,16.10
2023-05-11T16:46:19.679Z,16.10
2023-05-11T16:48:46.912Z,16.00
2023-05-11T16:51:14.168Z,15.90
2023-05-11T16:53:42.001Z,15.80
2023-05-11T16:56:09.181Z,15.70
2023-05-11T16:58:36.185Z,15.60
2023-05-11T17:01:03.268Z,15.50
2023-05-11T17:03:30.714Z,15.40
2023-05-11T17:05:58.189Z,15.30
2023-05-11T17:08:25.643Z,15.10
2023-05-11T17:10:52.737Z,15.00
2023-05-11T17:13:20.191Z,15.00
2023-05-11T17:15:47.358Z,14.90
2023-05-11T17:18:14.618Z,14.80
2023-05-11T17:20:42.046Z,14.60
2023-05-11T17:23:09.230Z,14.60
2023-05-11T17:25:36.386Z,14.60
2023-05-11T17:28:03.721Z,14.50
2023-05-11T17:30:47.490Z,14.50
2023-05-11T17:33:16.365Z,14.40
2023-05-11T17:35:43.709Z,14.40
2023-05-11T17:38:10.922Z,14.30
2023-05-11T17:40:38.322Z,14.30
2023-05-11T17:43:05.563Z,14.30
2023-05-11T17:45:32.600Z,14.30
2023-05-11T17:47:59.893Z,14.30
2023-05-11T17:50:27.152Z,14.20
2023-05-11T17:52:54.605Z,14.20
2023-05-11T17:55:21.919Z,14.20
2023-05-11T17:57:51.597Z,14.10
2023-05-11T18:00:20.177Z,14.10
2023-05-11T18:02:51.439Z,14.00
2023-05-11T18:05:18.651Z,14.10
2023-05-11T18:07:45.745Z,14.00
2023-05-11T18:10:12.940Z,13.90
2023-05-11T18:12:40.055Z,13.90
2023-05-11T18:15:07.777Z,13.90
2023-05-11T18:17:34.904Z,13.90
2023-05-11T18:20:02.476Z,13.80
2023-05-11T18:22:30.821Z,13.70
2023-05-11T18:24:58.067Z,13.70
2023-05-11T18:27:25.739Z,13.70
2023-05-11T18:29:53.486Z,13.60
2023-05-11T18:32:20.797Z,13.60
2023-05-11T18:34:48.068Z,13.50
2023-05-11T18:37:16.159Z,13.40
2023-05-11T18:39:43.474Z,13.40
2023-05-11T18:42:10.868Z,13.30
2023-05-11T18:44:38.526Z,13.30
2023-05-11T18:47:06.291Z,13.30
2023-05-11T18:49:33.641Z,13.20
2023-05-11T18:52:01.015Z,13.20
2023-05-11T18:54:28.184Z,13.10
2023-05-11T18:56:55.288Z,13.10
2023-05-11T18:59:22.524Z,13.00
2023-05-11T19:01:49.832Z,13.00
2023-05-11T19:04:19.713Z,12.80
2023-05-11T19:06:47.448Z,12.80
2023-05-11T19:09:14.427Z,12.80
2023-05-11T19:11:41.970Z,12.70
2023-05-11T19:14:12.296Z,12.70
2023-05-11T19:16:39.359Z,12.70
2023-05-11T19:19:07.062Z,12.60
2023-05-11T19:21:39.772Z,12.60
2023-05-11T19:24:07.967Z,12.60
2023-05-11T19:26:35.570Z,12.50
2023-05-11T19:29:02.855Z,12.50
2023-05-11T19:31:31.355Z,12.50
2023-05-11T19:33:59.099Z,12.40
2023-05-11T19:36:27.206Z,12.40
2023-05-11T19:38:54.748Z,12.30
2023-05-11T19:41:22.427Z,12.20
2023-05-11T19:43:49.518Z,12.20
2023-05-11T19:46:16.620Z,12.20
2023-05-11T19:48:43.783Z,12.10
2023-05-11T19:51:11.287Z,12.10
2023-05-11T19:53:38.378Z,12.00
2023-05-11T19:56:06.686Z,12.10
2023-05-11T19:58:33.933Z,12.00
2023-05-11T20:01:01.113Z,12.00
2023-05-11T20:03:28.981Z,11.90
2023-05-11T20:05:56.415Z,11.90
2023-05-11T20:08:23.800Z,11.90
2023-05-11T20:10:50.866Z,11.90
2023-05-11T20:13:17.958Z,11.90
2023-05-11T20:15:45.261Z,11.90
2023-05-11T20:18:12.405Z,11.90
2023-05-11T20:20:39.499Z,11.80
2023-05-11T20:23:06.643Z,11.80
2023-05-11T20:25:33.954Z,11.80
2023-05-11T20:28:01.153Z,11.70
2023-05-11T20:30:28.347Z,11.70
2023-05-11T20:35:25.403Z,11.70
2023-05-11T20:37:52.904Z,11.70
2023-05-11T20:40:20.498Z,11.70
2023-05-11T20:42:47.701Z,11.70
2023-05-11T20:45:15.284Z,11.70
2023-05-11T20:47:42.634Z,11.70
2023-05-11T20:50:10.238Z,11.70
2023-05-11T20:52:37.597Z,11.70
2023-05-11T20:55:05.801Z,11.70
2023-05-11T20:57:33.042Z,11.70
2023-05-11T21:02:30.606Z,11.70
2023-05-11T21:05:01.856Z,11.70
2023-05-11T21:07:29.725Z,11.70
2023-05-11T21:09:56.974Z,11.60
2023-05-11T21:12:24.151Z,11.60
2023-05-11T21:14:56.700Z,11.60
2023-05-11T21:17:24.203Z,11.60
2023-05-11T21:19:53.123Z,11.60
2023-05-11T21:22:20.220Z,11.60
2023-05-11T21:24:47.549Z,11.50
2023-05-11T21:27:15.036Z,11.50
2023-05-11T21:29:42.204Z,11.60
2023-05-11T21:32:10.146Z,11.50
2023-05-11T21:34:37.334Z,11.50
2023-05-11T21:37:04.870Z,11.50
2023-05-11T21:39:31.991Z,11.60
2023-05-11T21:41:59.214Z,11.60
2023-05-11T21:44:26.244Z,11.60
2023-05-11T21:46:53.732Z,11.60
2023-05-11T21:49:21.073Z,11.60
2023-05-11T21:51:49.066Z,11.60
2023-05-11T21:54:16.948Z,11.60
2023-05-11T21:56:45.103Z,11.70
2023-05-11T21:59:12.070Z,11.70
2023-05-11T22:01:39.126Z,11.70
2023-05-11T22:04:06.340Z,11.70
2023-05-11T22:06:33.708Z,11.60
2023-05-11T22:09:00.688Z,11.60
2023-05-11T22:11:27.818Z,11.70
2023-05-11T22:13:54.962Z,11.70
2023-05-11T22:16:22.059Z,11.70
2023-05-11T22:18:49.369Z,11.70
2023-05-11T22:21:16.508Z,11.70
2023-05-11T22:23:43.654Z,11.70
2023-05-11T22:26:10.901Z,11.70
2023-05-11T22:28:38.238Z,11.70
2023-05-11T22:31:05.531Z,11.70
2023-05-11T22:33:32.775Z,11.70
2023-05-11T22:35:59.837Z,11.70
2023-05-11T22:38:27.054Z,11.70
2023-05-11T22:40:54.190Z,11.70
2023-05-11T22:43:21.345Z,11.70
2023-05-11T22:45:48.377Z,11.70
2023-05-11T22:48:15.476Z,11.70
2023-05-11T22:50:47.467Z,11.70
2023-05-11T22:53:14.791Z,11.70
2023-05-11T22:55:42.446Z,11.70
2023-05-11T22:58:09.481Z,11.70
2023-05-11T23:00:37.200Z,11.70
2023-05-11T23:03:04.669Z,11.70
2023-05-11T23:05:31.858Z,11.70
2023-05-11T23:07:59.934Z,11.60
2023-05-11T23:10:28.501Z,11.60
2023-05-11T23:12:56.322Z,11.60
2023-05-11T23:15:23.345Z,11.60
2023-05-11T23:17:50.515Z,11.60
2023-05-11T23:20:17.827Z,11.60
2023-05-11T23:22:44.900Z,11.60
2023-05-11T23:25:12.117Z,11.60
2023-05-11T23:27:39.113Z,11.50
2023-05-11T23:30:07.110Z,11.60
2023-05-11T23:32:34.211Z,11.50
2023-05-11T23:35:01.324Z,11.60
2023-05-11T23:37:28.336Z,11.50
2023-05-11T23:39:55.414Z,11.50
2023-05-11T23:42:22.596Z,11.50
2023-05-11T23:44:49.753Z,11.50
2023-05-11T23:47:16.960Z,11.50
2023-05-11T23:49:44.230Z,11.50
2023-05-11T23:52:11.381Z,11.50
2023-05-11T23:54:38.523Z,11.50
2023-05-11T23:57:05.797Z,11.50
2023-05-11T23:59:32.751Z,11.50
